createdAt,value
2023-01-07T00:01:42.897Z,9.00
2023-01-07T00:04:13.314Z,9.00
2023-01-07T00:06:44.559Z,9.00
2023-01-07T00:09:14.576Z,9.00
2023-01-07T00:11:42.797Z,8.90
2023-01-07T00:14:13.139Z,8.90
2023-01-07T00:16:41.721Z,8.90
2023-01-07T00:19:13.498Z,8.80
2023-01-07T00:21:43.000Z,8.80
2023-01-07T00:24:12.202Z,8.70
2023-01-07T00:26:40.381Z,8.70
2023-01-07T00:29:09.597Z,8.70
2023-01-07T00:31:40.024Z,8.60
2023-01-07T00:34:09.454Z,8.60
2023-01-07T00:36:40.954Z,8.60
2023-01-07T00:39:13.251Z,8.60
2023-01-07T00:42:01.389Z,8.60
2023-01-07T00:44:29.369Z,8.60
2023-01-07T00:46:57.808Z,8.60
2023-01-07T00:49:25.728Z,8.60
2023-01-07T00:51:53.784Z,8.60
2023-01-07T00:54:22.975Z,8.70
2023-01-07T00:56:51.016Z,8.70
2023-01-07T00:59:18.840Z,8.80
2023-01-07T01:01:47.082Z,8.80
2023-01-07T01:04:14.938Z,8.80
2023-01-07T01:06:42.747Z,8.80
2023-01-07T01:09:10.555Z,8.80
2023-01-07T01:11:39.652Z,8.80
2023-01-07T01:14:07.525Z,8.80
2023-01-07T01:16:35.375Z,8.80
2023-01-07T01:19:03.285Z,8.90
2023-01-07T01:21:31.936Z,9.00
2023-01-07T01:23:59.704Z,9.10
2023-01-07T01:26:27.504Z,9.10
2023-01-07T01:28:57.458Z,9.20
2023-01-07T01:31:26.316Z,9.20
2023-01-07T01:33:55.748Z,9.30
2023-01-07T01:36:24.932Z,9.30
2023-01-07T01:38:56.634Z,9.30
2023-01-07T01:41:24.552Z,9.40
2023-01-07T01:43:55.947Z,9.40
2023-01-07T01:46:32.106Z,9.40
2023-01-07T01:49:03.711Z,9.50
2023-01-07T01:51:36.990Z,9.50
2023-01-07T01:54:07.149Z,9.60
2023-01-07T01:56:39.306Z,9.60
2023-01-07T01:59:12.831Z,9.60
2023-01-07T02:01:41.622Z,9.70
2023-01-07T02:04:17.567Z,9.70
2023-01-07T02:06:50.962Z,9.70
2023-01-07T02:09:19.206Z,9.70
2023-01-07T02:11:54.484Z,9.70
2023-01-07T02:14:45.267Z,9.80
2023-01-07T02:17:20.212Z,9.70
2023-01-07T02:20:19.243Z,9.70
2023-01-07T02:23:20.462Z,9.60
2023-01-07T02:26:15.041Z,9.60
2023-01-07T02:29:20.518Z,9.60
2023-01-07T02:32:15.003Z,9.70
2023-01-07T02:34:50.802Z,9.60
2023-01-07T02:37:25.661Z,9.60
2023-01-07T02:40:01.467Z,9.60
2023-01-07T02:42:38.543Z,9.60
2023-01-07T02:45:12.152Z,9.60
2023-01-07T02:47:47.628Z,9.50
2023-01-07T02:50:15.924Z,9.50
2023-01-07T02:52:43.877Z,9.50
2023-01-07T02:55:15.604Z,9.40
2023-01-07T02:58:20.509Z,9.40
2023-01-07T03:01:11.530Z,9.40
2023-01-07T03:03:54.531Z,9.40
2023-01-07T03:06:42.029Z,9.30
2023-01-07T03:09:17.057Z,9.30
2023-01-07T03:11:51.713Z,9.30
2023-01-07T03:14:23.728Z,9.20
2023-01-07T03:16:55.986Z,9.20
2023-01-07T03:19:29.338Z,9.10
2023-01-07T03:21:59.165Z,9.10
2023-01-07T03:24:29.184Z,9.10
2023-01-07T03:27:00.885Z,9.10
2023-01-07T03:29:29.252Z,9.00
2023-01-07T03:32:02.536Z,9.00
2023-01-07T03:34:33.458Z,9.10
2023-01-07T03:37:04.089Z,9.10
2023-01-07T03:39:35.527Z,9.10
2023-01-07T03:42:25.312Z,9.10
2023-01-07T03:44:53.475Z,9.10
2023-01-07T03:47:24.285Z,9.20
2023-01-07T03:49:53.380Z,9.20
2023-01-07T03:52:21.202Z,9.30
2023-01-07T03:54:49.028Z,9.30
2023-01-07T03:57:17.195Z,9.40
2023-01-07T03:59:45.107Z,9.50
2023-01-07T04:02:13.632Z,9.50
2023-01-07T04:04:42.021Z,9.60
2023-01-07T04:07:11.720Z,9.60
2023-01-07T04:09:39.555Z,9.60
2023-01-07T04:12:09.157Z,9.60
2023-01-07T04:14:37.015Z,9.60
2023-01-07T04:17:04.850Z,9.60
2023-01-07T04:19:33.946Z,9.60
2023-01-07T04:22:01.867Z,9.50
2023-01-07T04:24:32.516Z,9.40
2023-01-07T04:27:00.313Z,9.40
2023-01-07T04:29:28.203Z,9.30
2023-01-07T04:31:56.271Z,9.20
2023-01-07T04:34:24.732Z,9.20
2023-01-07T04:36:53.500Z,9.20
2023-01-07T04:39:21.441Z,9.10
2023-01-07T04:41:50.600Z,9.10
2023-01-07T04:44:18.715Z,9.10
2023-01-07T04:46:46.522Z,9.10
2023-01-07T04:49:14.778Z,9.10
2023-01-07T04:51:43.581Z,9.20
2023-01-07T04:54:11.528Z,9.20
2023-01-07T04:56:39.743Z,9.20
2023-01-07T04:59:09.727Z,9.30
2023-01-07T05:01:37.728Z,9.30
2023-01-07T05:04:07.436Z,9.40
2023-01-07T05:06:35.443Z,9.40
2023-01-07T05:09:04.258Z,9.40
2023-01-07T05:11:33.478Z,9.40
2023-01-07T05:14:02.439Z,9.50
2023-01-07T05:16:34.497Z,9.50
2023-01-07T05:19:06.492Z,9.50
2023-01-07T05:21:38.573Z,9.50
2023-01-07T05:24:06.960Z,9.50
2023-01-07T05:26:34.771Z,9.60
2023-01-07T05:29:03.067Z,9.60
2023-01-07T05:31:30.867Z,9.60
2023-01-07T05:34:00.045Z,9.60
2023-01-07T05:36:29.115Z,9.60
2023-01-07T05:38:57.408Z,9.60
2023-01-07T05:41:25.207Z,9.60
2023-01-07T05:43:53.058Z,9.70
2023-01-07T05:46:20.939Z,9.70
2023-01-07T05:48:48.783Z,9.70
2023-01-07T05:51:17.947Z,9.70
2023-01-07T05:53:45.715Z,9.70
2023-01-07T05:56:13.472Z,9.80
2023-01-07T05:58:41.244Z,9.70
2023-01-07T06:01:09.099Z,9.80
2023-01-07T06:03:36.999Z,9.80
2023-01-07T06:06:07.309Z,9.80
2023-01-07T06:08:37.017Z,9.80
2023-01-07T06:11:05.985Z,9.80
2023-01-07T06:13:33.933Z,9.80
2023-01-07T06:16:02.140Z,9.80
2023-01-07T06:18:30.138Z,9.90
2023-01-07T06:20:58.296Z,9.90
2023-01-07T06:23:26.124Z,9.90
2023-01-07T06:25:55.293Z,9.90
2023-01-07T06:28:23.139Z,9.90
2023-01-07T06:30:51.018Z,9.90
2023-01-07T06:33:18.885Z,9.90
2023-01-07T06:35:47.289Z,9.90
2023-01-07T06:38:15.157Z,9.90
2023-01-07T06:40:44.586Z,9.90
2023-01-07T06:43:13.787Z,9.90
2023-01-07T06:45:41.782Z,9.90
2023-01-07T06:48:09.780Z,9.90
2023-01-07T06:50:37.618Z,9.90
2023-01-07T06:53:05.656Z,9.90
2023-01-07T06:55:33.464Z,9.90
2023-01-07T06:58:01.266Z,10.00
2023-01-07T07:00:30.560Z,10.00
2023-01-07T07:02:58.481Z,10.00
2023-01-07T07:05:26.739Z,10.00
2023-01-07T07:07:54.489Z,10.00
2023-01-07T07:10:22.297Z,10.00
2023-01-07T07:12:50.119Z,10.00
2023-01-07T07:15:18.065Z,10.00
2023-01-07T07:17:47.156Z,10.00
2023-01-07T07:20:15.277Z,10.00
2023-01-07T07:22:46.233Z,10.00
2023-01-07T07:25:14.538Z,10.00
2023-01-07T07:27:44.735Z,10.00
2023-01-07T07:30:13.544Z,10.00
2023-01-07T07:32:41.369Z,10.00
2023-01-07T07:35:11.621Z,10.00
2023-01-07T07:37:39.672Z,10.00
2023-01-07T07:40:09.462Z,10.00
2023-01-07T07:43:11.915Z,9.90
2023-01-07T07:45:26.549Z,9.90
2023-01-07T07:47:54.396Z,9.80
2023-01-07T07:50:23.905Z,9.80
2023-01-07T07:52:51.660Z,9.70
2023-01-07T07:55:26.281Z,9.70
2023-01-07T07:57:54.736Z,9.60
2023-01-07T08:00:22.832Z,9.60
2023-01-07T08:02:50.642Z,9.50
2023-01-07T08:05:18.711Z,9.40
2023-01-07T08:07:47.908Z,9.40
2023-01-07T08:10:15.695Z,9.40
2023-01-07T08:12:43.536Z,9.40
2023-01-07T08:15:12.029Z,9.40
2023-01-07T08:17:39.946Z,9.40
2023-01-07T08:20:09.358Z,9.50
2023-01-07T08:22:37.252Z,9.60
2023-01-07T08:25:07.310Z,9.70
2023-01-07T08:27:35.157Z,9.80
2023-01-07T08:30:02.990Z,9.80
2023-01-07T08:32:30.800Z,9.90
2023-01-07T08:34:58.713Z,10.00
2023-01-07T08:37:26.492Z,10.00
2023-01-07T08:39:54.267Z,10.10
2023-01-07T08:42:23.548Z,10.10
2023-01-07T08:44:51.645Z,10.20
2023-01-07T08:47:19.478Z,10.20
2023-01-07T08:49:47.380Z,10.30
2023-01-07T08:52:15.233Z,10.40
2023-01-07T08:54:43.030Z,10.40
2023-01-07T08:57:10.791Z,10.50
2023-01-07T08:59:40.742Z,10.50
2023-01-07T09:02:11.547Z,10.50
2023-01-07T09:04:39.397Z,10.60
2023-01-07T09:07:07.270Z,10.60
2023-01-07T09:09:35.100Z,10.60
2023-01-07T09:12:03.396Z,10.60
2023-01-07T09:14:31.267Z,10.60
2023-01-07T09:17:00.466Z,10.60
2023-01-07T09:19:30.485Z,10.60
2023-01-07T09:21:58.329Z,10.60
2023-01-07T09:24:28.366Z,10.70
2023-01-07T09:26:56.350Z,10.70
2023-01-07T09:29:24.477Z,10.80
2023-01-07T09:31:52.422Z,10.80
2023-01-07T09:34:21.906Z,10.80
2023-01-07T09:36:49.714Z,10.80
2023-01-07T09:39:17.522Z,10.90
2023-01-07T09:41:52.716Z,10.90
2023-01-07T09:44:28.272Z,10.90
2023-01-07T09:46:56.888Z,10.90
2023-01-07T09:49:32.323Z,10.90
2023-01-07T09:52:05.584Z,10.90
2023-01-07T09:54:36.231Z,10.90
2023-01-07T09:57:04.548Z,10.90
2023-01-07T09:59:32.468Z,10.90
2023-01-07T10:02:12.273Z,10.90
2023-01-07T10:04:49.664Z,10.90
2023-01-07T10:07:24.754Z,10.90
2023-01-07T10:10:07.204Z,10.90
2023-01-07T10:12:43.207Z,11.00
2023-01-07T10:15:23.384Z,11.00
2023-01-07T10:18:06.059Z,11.00
2023-01-07T10:20:43.946Z,11.10
2023-01-07T10:23:15.197Z,11.10
2023-01-07T10:25:49.098Z,11.00
2023-01-07T10:28:22.962Z,11.00
2023-01-07T10:30:52.832Z,11.00
2023-01-07T10:33:25.198Z,10.90
2023-01-07T10:36:04.502Z,11.00
2023-01-07T10:38:36.008Z,11.00
2023-01-07T10:41:11.143Z,11.00
2023-01-07T10:43:56.842Z,11.00
2023-01-07T10:46:32.600Z,11.00
2023-01-07T10:49:18.657Z,11.00
2023-01-07T10:52:01.509Z,11.00
2023-01-07T10:54:44.375Z,11.00
2023-01-07T10:57:18.246Z,11.00
2023-01-07T10:59:50.081Z,11.00
2023-01-07T11:02:20.309Z,11.00
2023-01-07T11:04:49.572Z,11.00
2023-01-07T11:07:29.275Z,11.00
2023-01-07T11:09:59.604Z,10.90
2023-01-07T11:12:36.729Z,10.90
2023-01-07T11:15:08.075Z,10.90
2023-01-07T11:17:40.386Z,10.90
2023-01-07T11:20:09.133Z,11.00
2023-01-07T11:22:39.686Z,11.00
2023-01-07T11:25:26.763Z,11.00
2023-01-07T11:27:54.537Z,11.00
2023-01-07T11:30:26.655Z,11.00
2023-01-07T11:32:59.067Z,11.00
2023-01-07T11:35:29.083Z,10.90
2023-01-07T11:37:59.341Z,11.00
2023-01-07T11:40:29.437Z,10.90
2023-01-07T11:42:58.945Z,11.00
2023-01-07T11:45:29.088Z,11.00
2023-01-07T11:48:02.854Z,11.00
2023-01-07T11:50:35.977Z,11.00
2023-01-07T11:53:24.411Z,11.10
2023-01-07T11:56:00.693Z,11.10
2023-01-07T11:58:31.440Z,11.10
2023-01-07T12:01:14.344Z,11.00
2023-01-07T12:03:43.665Z,11.00
2023-01-07T12:06:19.929Z,11.00
2023-01-07T12:09:01.738Z,10.90
2023-01-07T12:11:33.904Z,10.90
2023-01-07T12:14:07.491Z,11.00
2023-01-07T12:16:37.068Z,11.00
2023-01-07T12:19:18.264Z,11.00
2023-01-07T12:22:02.077Z,11.10
2023-01-07T12:24:52.832Z,11.00
2023-01-07T12:27:32.744Z,11.00
2023-01-07T12:30:20.292Z,11.00
2023-01-07T12:32:58.998Z,11.00
2023-01-07T12:35:31.293Z,11.00
2023-01-07T12:38:03.820Z,10.90
2023-01-07T12:40:37.828Z,10.90
2023-01-07T12:43:12.756Z,10.90
2023-01-07T12:45:44.049Z,10.90
2023-01-07T12:48:19.695Z,10.90
2023-01-07T12:50:51.168Z,10.90
2023-01-07T12:53:25.891Z,10.90
2023-01-07T12:56:00.251Z,10.90
2023-01-07T12:58:40.470Z,11.00
2023-01-07T13:01:17.787Z,11.00
2023-01-07T13:03:52.983Z,11.10
2023-01-07T13:06:31.683Z,11.30
2023-01-07T13:09:08.728Z,11.30
2023-01-07T13:12:00.248Z,11.40
2023-01-07T13:14:36.846Z,11.50
2023-01-07T13:17:16.339Z,11.50
2023-01-07T13:19:47.427Z,11.40
2023-01-07T13:22:21.687Z,11.40
2023-01-07T13:24:58.918Z,11.50
2023-01-07T13:27:38.733Z,11.50
2023-01-07T13:30:20.273Z,11.40
2023-01-07T13:33:03.978Z,11.40
2023-01-07T13:35:46.942Z,11.40
2023-01-07T13:38:39.078Z,11.30
2023-01-07T13:41:20.810Z,11.30
2023-01-07T13:44:10.015Z,11.30
2023-01-07T13:46:41.334Z,11.30
2023-01-07T13:49:25.383Z,11.30
2023-01-07T13:51:54.798Z,11.30
2023-01-07T13:55:02.936Z,11.30
2023-01-07T13:57:44.859Z,11.20
2023-01-07T14:00:48.086Z,11.20
2023-01-07T14:03:40.265Z,11.10
2023-01-07T14:06:33.455Z,11.00
2023-01-07T14:09:30.769Z,11.00
2023-01-07T14:12:35.800Z,11.00
2023-01-07T14:15:23.133Z,10.90
2023-01-07T14:18:04.845Z,10.90
2023-01-07T14:20:41.025Z,10.80
2023-01-07T14:23:21.737Z,10.80
2023-01-07T14:26:02.025Z,10.90
2023-01-07T14:29:10.911Z,10.80
2023-01-07T14:31:38.845Z,10.80
2023-01-07T14:34:18.146Z,10.80
2023-01-07T14:37:11.478Z,10.80
2023-01-07T14:39:40.837Z,10.70
2023-01-07T14:42:42.006Z,10.70
2023-01-07T14:45:47.617Z,10.70
2023-01-07T14:48:33.644Z,10.70
2023-01-07T14:51:45.437Z,10.70
2023-01-07T14:54:32.086Z,10.70
2023-01-07T14:57:09.819Z,10.60
2023-01-07T15:00:13.663Z,10.60
2023-01-07T15:03:12.968Z,10.60
2023-01-07T15:06:01.360Z,10.60
2023-01-07T15:08:59.431Z,10.60
2023-01-07T15:11:45.471Z,10.60
2023-01-07T15:14:39.471Z,10.60
2023-01-07T15:17:07.826Z,10.50
2023-01-07T15:19:38.501Z,10.50
2023-01-07T15:22:19.652Z,10.50
2023-01-07T15:24:56.293Z,10.50
2023-01-07T15:27:32.340Z,10.50
2023-01-07T15:30:10.395Z,10.50
2023-01-07T15:32:50.810Z,10.40
2023-01-07T15:35:21.734Z,10.40
2023-01-07T15:37:51.611Z,10.40
2023-01-07T15:40:23.567Z,10.40
2023-01-07T15:42:53.704Z,10.40
2023-01-07T15:45:23.906Z,10.40
2023-01-07T15:47:52.151Z,10.40
2023-01-07T15:50:29.997Z,10.40
2023-01-07T15:53:01.002Z,10.40
2023-01-07T15:55:33.888Z,10.40
2023-01-07T15:58:05.544Z,10.40
2023-01-07T16:00:34.793Z,10.40
2023-01-07T16:03:03.807Z,10.40
2023-01-07T16:05:32.116Z,10.40
2023-01-07T16:08:01.852Z,10.40
2023-01-07T16:10:33.548Z,10.40
2023-01-07T16:13:03.208Z,10.40
2023-01-07T16:15:32.979Z,10.40
2023-01-07T16:18:02.590Z,10.30
2023-01-07T16:20:33.929Z,10.40
2023-01-07T16:23:18.801Z,10.30
2023-01-07T16:25:51.630Z,10.30
2023-01-07T16:28:23.797Z,10.30
2023-01-07T16:30:52.594Z,10.30
2023-01-07T16:33:23.881Z,10.40
2023-01-07T16:35:54.007Z,10.30
2023-01-07T16:38:22.520Z,10.30
2023-01-07T16:40:52.178Z,10.40
2023-01-07T16:43:41.965Z,10.30
2023-01-07T16:46:19.070Z,10.30
2023-01-07T16:48:47.425Z,10.30
2023-01-07T16:51:38.500Z,10.30
2023-01-07T16:54:33.351Z,10.30
2023-01-07T16:57:05.053Z,10.30
2023-01-07T16:59:37.664Z,10.30
2023-01-07T17:02:20.270Z,10.30
2023-01-07T17:04:48.444Z,10.30
2023-01-07T17:07:20.960Z,10.30
2023-01-07T17:09:48.824Z,10.30
2023-01-07T17:12:36.487Z,10.30
2023-01-07T17:15:24.713Z,10.30
2023-01-07T17:17:52.486Z,10.30
2023-01-07T17:20:22.560Z,10.30
2023-01-07T17:22:51.119Z,10.20
2023-01-07T17:25:25.160Z,10.20
2023-01-07T17:27:58.206Z,10.20
2023-01-07T17:30:34.404Z,10.20
2023-01-07T17:33:02.544Z,10.20
2023-01-07T17:35:30.325Z,10.10
2023-01-07T17:37:58.129Z,10.10
2023-01-07T17:40:26.147Z,10.10
2023-01-07T17:43:14.254Z,10.00
2023-01-07T17:45:42.336Z,10.10
2023-01-07T17:48:13.875Z,10.10
2023-01-07T17:50:42.293Z,10.00
2023-01-07T17:53:20.335Z,10.10
2023-01-07T17:55:48.115Z,10.00
2023-01-07T17:58:26.217Z,10.00
2023-01-07T18:00:55.443Z,10.10
2023-01-07T18:03:24.430Z,10.00
2023-01-07T18:06:08.825Z,10.00
2023-01-07T18:08:37.705Z,10.00
2023-01-07T18:11:23.806Z,10.00
2023-01-07T18:13:52.996Z,10.00
2023-01-07T18:16:21.109Z,9.80
2023-01-07T18:18:49.124Z,9.70
2023-01-07T18:21:17.091Z,9.60
2023-01-07T18:23:45.919Z,9.50
2023-01-07T18:26:14.428Z,9.40
2023-01-07T18:28:44.538Z,9.40
2023-01-07T18:31:13.908Z,9.30
2023-01-07T18:33:42.273Z,9.30
2023-01-07T18:36:11.607Z,9.10
2023-01-07T18:38:40.052Z,9.10
2023-01-07T18:41:07.995Z,9.00
2023-01-07T18:43:36.245Z,9.00
2023-01-07T18:46:08.451Z,8.90
2023-01-07T18:48:38.187Z,8.90
2023-01-07T18:51:10.751Z,8.80
2023-01-07T18:53:39.012Z,8.70
2023-01-07T18:56:11.481Z,8.60
2023-01-07T18:58:39.852Z,8.60
2023-01-07T19:01:09.300Z,8.50
2023-01-07T19:03:39.291Z,8.40
2023-01-07T19:06:09.133Z,8.30
2023-01-07T19:08:37.129Z,8.30
2023-01-07T19:11:07.547Z,8.20
2023-01-07T19:13:35.648Z,8.10
2023-01-07T19:16:07.081Z,8.10
2023-01-07T19:18:34.965Z,8.10
2023-01-07T19:21:04.486Z,8.10
2023-01-07T19:23:32.776Z,8.10
2023-01-07T19:26:03.587Z,8.10
2023-01-07T19:28:32.768Z,8.10
2023-01-07T19:31:00.758Z,8.10
2023-01-07T19:33:28.701Z,8.10
2023-01-07T19:36:02.982Z,8.00
2023-01-07T19:38:32.149Z,8.00
2023-01-07T19:41:00.049Z,7.90
2023-01-07T19:43:28.986Z,7.90
2023-01-07T19:45:57.748Z,7.80
2023-01-07T19:48:25.677Z,7.60
2023-01-07T19:50:58.035Z,7.60
2023-01-07T19:53:26.274Z,7.50
2023-01-07T19:55:59.569Z,7.40
2023-01-07T19:58:27.577Z,7.30
2023-01-07T20:00:55.522Z,7.30
2023-01-07T20:03:23.380Z,7.20
2023-01-07T20:05:51.250Z,7.10
2023-01-07T20:08:19.018Z,7.10
2023-01-07T20:10:58.182Z,7.00
2023-01-07T20:13:26.187Z,6.90
2023-01-07T20:15:54.044Z,6.90
2023-01-07T20:18:22.468Z,6.80
2023-01-07T20:20:57.074Z,6.70
2023-01-07T20:23:24.902Z,6.70
2023-01-07T20:25:52.881Z,6.60
2023-01-07T20:28:22.391Z,6.60
2023-01-07T20:30:50.234Z,6.40
2023-01-07T20:33:18.135Z,6.40
2023-01-07T20:35:46.630Z,6.30
2023-01-07T20:38:14.513Z,6.20
2023-01-07T20:40:43.034Z,6.20
2023-01-07T20:43:12.706Z,6.10
2023-01-07T20:45:41.844Z,6.10
2023-01-07T20:48:09.673Z,6.10
2023-01-07T20:50:39.926Z,6.10
2023-01-07T20:53:08.050Z,6.00
2023-01-07T20:55:37.199Z,6.00
2023-01-07T20:58:05.045Z,6.00
2023-01-07T21:00:33.819Z,6.00
2023-01-07T21:03:03.074Z,6.00
2023-01-07T21:05:31.006Z,6.00
2023-01-07T21:07:59.321Z,6.00
2023-01-07T21:10:27.323Z,6.00
2023-01-07T21:12:55.082Z,6.10
2023-01-07T21:15:22.940Z,6.20
2023-01-07T21:17:53.877Z,6.30
2023-01-07T21:20:23.229Z,6.50
2023-01-07T21:22:51.040Z,6.60
2023-01-07T21:25:18.922Z,6.80
2023-01-07T21:27:48.453Z,6.90
2023-01-07T21:30:18.117Z,7.00
2023-01-07T21:32:47.253Z,7.10
2023-01-07T21:35:15.557Z,7.20
2023-01-07T21:37:44.825Z,7.30
2023-01-07T21:40:12.845Z,7.40
2023-01-07T21:42:40.730Z,7.40
2023-01-07T21:45:09.306Z,7.50
2023-01-07T21:47:37.054Z,7.50
2023-01-07T21:50:05.494Z,7.50
2023-01-07T21:52:35.377Z,7.60
2023-01-07T21:55:05.126Z,7.70
2023-01-07T21:57:33.807Z,7.80
2023-01-07T22:00:01.628Z,7.90
2023-01-07T22:02:29.429Z,7.90
2023-01-07T22:04:57.261Z,7.90
2023-01-07T22:07:25.073Z,7.90
2023-01-07T22:09:52.945Z,7.90
2023-01-07T22:12:23.335Z,7.90
2023-01-07T22:14:51.197Z,7.80
2023-01-07T22:17:19.043Z,7.80
2023-01-07T22:19:46.866Z,7.90
2023-01-07T22:22:16.577Z,7.90
2023-01-07T22:24:44.552Z,7.90
2023-01-07T22:27:12.395Z,7.90
2023-01-07T22:29:42.105Z,7.90
2023-01-07T22:32:09.954Z,7.90
2023-01-07T22:34:38.171Z,7.90
2023-01-07T22:37:09.107Z,7.90
2023-01-07T22:39:40.393Z,7.90
2023-01-07T22:42:11.535Z,7.90
2023-01-07T22:44:45.096Z,7.90
2023-01-07T22:47:15.182Z,8.00
2023-01-07T22:49:43.516Z,8.00
2023-01-07T22:52:12.741Z,8.00
2023-01-07T22:54:41.016Z,8.00
2023-01-07T22:57:11.035Z,8.00
2023-01-07T22:59:38.983Z,8.00
2023-01-07T23:02:08.126Z,8.00
2023-01-07T23:04:35.923Z,8.00
2023-01-07T23:07:03.935Z,7.90
2023-01-07T23:09:31.965Z,7.90
2023-01-07T23:12:00.840Z,7.90
2023-01-07T23:14:30.332Z,7.90
2023-01-07T23:16:58.981Z,7.90
2023-01-07T23:19:29.148Z,7.90
2023-01-07T23:21:57.715Z,7.90
2023-01-07T23:24:25.686Z,7.90
2023-01-07T23:26:55.025Z,7.90
2023-01-07T23:29:23.238Z,7.90
2023-01-07T23:31:51.179Z,7.90
2023-01-07T23:34:19.988Z,7.90
2023-01-07T23:36:49.099Z,7.90
2023-01-07T23:39:16.890Z,8.00
2023-01-07T23:41:45.680Z,8.00
2023-01-07T23:44:13.851Z,8.00
2023-01-07T23:46:41.632Z,8.00
2023-01-07T23:49:09.518Z,8.00
2023-01-07T23:51:37.301Z,7.90
2023-01-07T23:54:06.582Z,7.90
2023-01-07T23:56:34.428Z,7.80
2023-01-07T23:59:03.122Z,7.70
